createdAt,value
2023-03-28T00:01:02.165Z,94.27
2023-03-28T00:02:06.515Z,94.25
2023-03-28T00:03:10.734Z,94.23
2023-03-28T00:04:14.889Z,94.22
2023-03-28T00:05:19.035Z,94.24
2023-03-28T00:06:23.072Z,94.32
2023-03-28T00:07:27.355Z,94.30
2023-03-28T00:08:31.489Z,94.39
2023-03-28T00:09:35.569Z,94.56
2023-03-28T00:10:39.869Z,94.72
2023-03-28T00:11:44.025Z,94.79
2023-03-28T00:12:48.067Z,94.87
2023-03-28T00:13:52.274Z,94.88
2023-03-28T00:14:56.390Z,94.82
2023-03-28T00:16:00.672Z,94.74
2023-03-28T00:17:04.644Z,94.63
2023-03-28T00:18:08.721Z,94.54
2023-03-28T00:19:12.955Z,94.39
2023-03-28T00:20:17.250Z,94.27
2023-03-28T00:21:21.326Z,94.18
2023-03-28T00:22:25.555Z,94.04
2023-03-28T00:23:29.709Z,93.90
2023-03-28T00:24:33.839Z,93.76
2023-03-28T00:25:38.046Z,93.71
2023-03-28T00:26:42.151Z,93.64
2023-03-28T00:28:00.374Z,93.56
2023-03-28T00:29:03.257Z,93.47
2023-03-28T00:30:08.267Z,93.40
2023-03-28T00:31:12.018Z,93.32
2023-03-28T00:32:16.021Z,93.23
2023-03-28T00:33:20.373Z,93.13
2023-03-28T00:34:24.472Z,93.04
2023-03-28T00:35:28.653Z,92.95
2023-03-28T00:36:32.934Z,92.86
2023-03-28T00:37:37.064Z,92.83
2023-03-28T00:38:41.065Z,92.79
2023-03-28T00:39:45.301Z,92.76
2023-03-28T00:40:49.544Z,92.73
2023-03-28T00:41:53.621Z,92.70
2023-03-28T00:42:57.845Z,92.60
2023-03-28T00:44:01.963Z,92.55
2023-03-28T00:45:06.176Z,92.54
2023-03-28T00:46:10.570Z,92.50
2023-03-28T00:47:14.383Z,92.45
2023-03-28T00:48:18.703Z,92.40
2023-03-28T00:49:22.847Z,92.39
2023-03-28T00:50:27.001Z,92.33
2023-03-28T00:51:31.241Z,92.32
2023-03-28T00:52:35.315Z,92.29
2023-03-28T00:53:39.489Z,92.28
2023-03-28T00:54:43.756Z,92.24
2023-03-28T00:55:47.829Z,92.18
2023-03-28T00:56:52.293Z,92.11
2023-03-28T00:57:56.170Z,92.05
2023-03-28T00:59:00.344Z,91.96
2023-03-28T01:00:04.402Z,91.90
2023-03-28T01:01:08.776Z,91.75
2023-03-28T01:02:12.996Z,91.60
2023-03-28T01:03:17.148Z,91.50
2023-03-28T01:04:21.213Z,91.35
2023-03-28T01:05:25.413Z,91.22
2023-03-28T01:06:29.644Z,91.03
2023-03-28T01:07:33.929Z,90.92
2023-03-28T01:08:38.116Z,90.77
2023-03-28T01:09:42.083Z,90.62
2023-03-28T01:10:46.192Z,90.50
2023-03-28T01:11:50.408Z,90.24
2023-03-28T01:12:54.567Z,89.98
2023-03-28T01:13:58.820Z,89.81
2023-03-28T01:15:02.903Z,89.66
2023-03-28T01:16:07.108Z,89.50
2023-03-28T01:17:11.233Z,89.42
2023-03-28T01:18:15.413Z,89.35
2023-03-28T01:19:19.472Z,89.19
2023-03-28T01:20:23.794Z,89.01
2023-03-28T01:21:27.885Z,88.82
2023-03-28T01:22:31.971Z,88.64
2023-03-28T01:23:36.148Z,88.50
2023-03-28T01:24:40.342Z,88.35
2023-03-28T01:25:44.394Z,88.30
2023-03-28T01:26:48.683Z,88.21
2023-03-28T01:27:52.926Z,88.05
2023-03-28T01:28:56.932Z,87.88
2023-03-28T01:30:01.195Z,87.73
2023-03-28T01:31:05.324Z,87.64
2023-03-28T01:32:09.487Z,87.59
2023-03-28T01:33:13.717Z,87.53
2023-03-28T01:34:17.715Z,87.45
2023-03-28T01:35:21.914Z,87.37
2023-03-28T01:36:34.638Z,87.33
2023-03-28T01:37:30.377Z,87.32
2023-03-28T01:38:34.465Z,87.35
2023-03-28T01:39:38.808Z,87.37
2023-03-28T01:40:42.844Z,87.40
2023-03-28T01:41:47.012Z,87.35
2023-03-28T01:42:51.199Z,87.33
2023-03-28T01:43:55.383Z,87.29
2023-03-28T01:45:02.578Z,87.23
2023-03-28T01:46:05.704Z,87.27
2023-03-28T01:47:09.780Z,87.33
2023-03-28T01:48:14.058Z,87.44
2023-03-28T01:49:18.068Z,87.57
2023-03-28T01:50:22.324Z,87.63
2023-03-28T01:51:26.460Z,87.62
2023-03-28T01:52:30.720Z,87.69
2023-03-28T01:53:34.887Z,87.77
2023-03-28T01:54:38.955Z,87.78
2023-03-28T01:55:43.190Z,87.77
2023-03-28T01:56:47.468Z,87.73
2023-03-28T01:57:51.566Z,87.84
2023-03-28T01:58:55.592Z,87.92
2023-03-28T01:59:59.841Z,88.02
2023-03-28T02:01:04.093Z,88.06
2023-03-28T02:02:08.197Z,88.09
2023-03-28T02:03:12.605Z,88.14
2023-03-28T02:04:20.813Z,88.19
2023-03-28T02:05:20.925Z,88.16
2023-03-28T02:06:24.892Z,88.10
2023-03-28T02:07:29.234Z,88.13
2023-03-28T02:08:33.475Z,88.06
2023-03-28T02:09:37.686Z,88.03
2023-03-28T02:10:41.737Z,87.95
2023-03-28T02:11:45.925Z,87.91
2023-03-28T02:12:50.048Z,87.84
2023-03-28T02:13:54.158Z,87.67
2023-03-28T02:14:58.575Z,87.58
2023-03-28T02:16:02.954Z,87.53
2023-03-28T02:17:06.872Z,87.44
2023-03-28T02:18:11.171Z,87.43
2023-03-28T02:19:15.380Z,87.43
2023-03-28T02:20:19.403Z,87.39
2023-03-28T02:21:23.626Z,87.32
2023-03-28T02:22:27.856Z,87.20
2023-03-28T02:23:32.013Z,87.11
2023-03-28T02:24:36.187Z,87.04
2023-03-28T02:25:40.469Z,87.05
2023-03-28T02:26:44.495Z,87.06
2023-03-28T02:27:48.557Z,87.03
2023-03-28T02:28:52.833Z,87.02
2023-03-28T02:29:57.084Z,87.06
2023-03-28T02:31:01.185Z,87.11
2023-03-28T02:32:05.294Z,87.11
2023-03-28T02:33:09.457Z,87.08
2023-03-28T02:34:13.601Z,87.07
2023-03-28T02:35:17.806Z,86.86
2023-03-28T02:36:21.980Z,86.88
2023-03-28T02:37:26.119Z,87.05
2023-03-28T02:38:30.295Z,87.19
2023-03-28T02:39:34.312Z,87.39
2023-03-28T02:40:38.505Z,87.67
2023-03-28T02:41:42.549Z,87.92
2023-03-28T02:42:46.697Z,88.27
2023-03-28T02:43:50.923Z,88.61
2023-03-28T02:44:55.081Z,88.83
2023-03-28T02:45:59.593Z,89.19
2023-03-28T02:47:03.316Z,89.47
2023-03-28T02:48:07.547Z,89.73
2023-03-28T02:49:11.781Z,89.94
2023-03-28T02:50:15.970Z,90.14
2023-03-28T02:51:20.066Z,90.31
2023-03-28T02:52:24.265Z,90.45
2023-03-28T02:53:29.305Z,90.56
2023-03-28T02:54:33.107Z,90.59
2023-03-28T02:55:37.292Z,90.71
2023-03-28T02:56:41.503Z,90.72
2023-03-28T02:57:46.520Z,90.78
2023-03-28T02:58:50.365Z,90.80
2023-03-28T02:59:54.575Z,90.78
2023-03-28T03:00:58.709Z,90.80
2023-03-28T03:02:02.793Z,90.79
2023-03-28T03:03:07.091Z,90.80
2023-03-28T03:04:11.260Z,90.81
2023-03-28T03:05:15.261Z,90.84
2023-03-28T03:06:19.609Z,90.87
2023-03-28T03:07:23.774Z,90.91
2023-03-28T03:08:27.782Z,90.94
2023-03-28T03:09:32.183Z,90.87
2023-03-28T03:10:36.269Z,90.92
2023-03-28T03:11:40.468Z,90.93
2023-03-28T03:12:44.601Z,90.93
2023-03-28T03:13:48.751Z,90.92
2023-03-28T03:14:53.025Z,90.91
2023-03-28T03:15:57.275Z,90.90
2023-03-28T03:17:01.353Z,90.89
2023-03-28T03:18:05.610Z,90.90
2023-03-28T03:19:09.728Z,90.88
2023-03-28T03:20:14.013Z,90.84
2023-03-28T03:21:18.025Z,90.80
2023-03-28T03:22:22.139Z,90.72
2023-03-28T03:23:26.567Z,90.62
2023-03-28T03:24:30.740Z,90.53
2023-03-28T03:25:34.828Z,90.46
2023-03-28T03:26:39.114Z,90.39
2023-03-28T03:27:43.156Z,90.30
2023-03-28T03:28:47.419Z,90.20
2023-03-28T03:29:51.622Z,90.10
2023-03-28T03:30:55.895Z,90.02
2023-03-28T03:32:00.872Z,89.92
2023-03-28T03:33:04.813Z,89.82
2023-03-28T03:34:08.825Z,89.75
2023-03-28T03:35:13.076Z,89.71
2023-03-28T03:36:17.280Z,89.67
2023-03-28T03:37:21.494Z,89.57
2023-03-28T03:38:25.671Z,89.45
2023-03-28T03:39:29.941Z,89.29
2023-03-28T03:40:34.438Z,89.15
2023-03-28T03:41:38.448Z,89.22
2023-03-28T03:42:42.595Z,89.08
2023-03-28T03:43:47.320Z,89.04
2023-03-28T03:44:50.933Z,88.95
2023-03-28T03:45:55.046Z,88.96
2023-03-28T03:46:59.324Z,88.73
2023-03-28T03:48:03.502Z,88.58
2023-03-28T03:49:07.704Z,88.47
2023-03-28T03:50:11.786Z,88.28
2023-03-28T03:51:15.873Z,88.25
2023-03-28T03:52:20.081Z,88.16
2023-03-28T03:53:24.253Z,88.11
2023-03-28T03:54:28.373Z,88.11
2023-03-28T03:55:32.489Z,88.09
2023-03-28T03:56:36.678Z,88.08
2023-03-28T03:57:40.662Z,88.05
2023-03-28T03:58:44.868Z,87.95
2023-03-28T03:59:49.038Z,87.96
2023-03-28T04:00:53.082Z,87.95
2023-03-28T04:02:00.428Z,87.93
2023-03-28T04:03:03.581Z,87.84
2023-03-28T04:04:07.858Z,87.71
2023-03-28T04:05:12.039Z,87.67
2023-03-28T04:06:16.162Z,87.60
2023-03-28T04:07:20.326Z,87.50
2023-03-28T04:08:24.479Z,87.49
2023-03-28T04:09:28.739Z,87.49
2023-03-28T04:10:32.871Z,87.49
2023-03-28T04:11:36.940Z,87.48
2023-03-28T04:12:41.231Z,87.52
2023-03-28T04:13:45.330Z,87.51
2023-03-28T04:14:49.534Z,87.50
2023-03-28T04:15:53.589Z,87.44
2023-03-28T04:16:57.708Z,87.38
2023-03-28T04:18:04.848Z,87.24
2023-03-28T04:19:06.180Z,87.31
2023-03-28T04:20:10.287Z,87.20
2023-03-28T04:21:15.421Z,87.14
2023-03-28T04:22:19.144Z,87.07
2023-03-28T04:23:23.442Z,87.03
2023-03-28T04:24:27.554Z,86.97
2023-03-28T04:25:31.710Z,86.92
2023-03-28T04:26:36.012Z,86.94
2023-03-28T04:27:40.127Z,87.01
2023-03-28T04:28:44.259Z,87.03
2023-03-28T04:29:48.405Z,87.03
2023-03-28T04:30:52.591Z,87.00
2023-03-28T04:31:57.026Z,86.94
2023-03-28T04:33:01.247Z,86.89
2023-03-28T04:34:05.210Z,86.90
2023-03-28T04:35:09.537Z,86.84
2023-03-28T04:36:13.675Z,87.00
2023-03-28T04:37:17.883Z,87.09
2023-03-28T04:38:21.988Z,87.10
2023-03-28T04:39:26.304Z,87.13
2023-03-28T04:40:30.366Z,87.21
2023-03-28T04:41:34.571Z,87.37
2023-03-28T04:42:38.656Z,87.31
2023-03-28T04:43:42.851Z,87.32
2023-03-28T04:44:46.997Z,87.36
2023-03-28T04:45:51.203Z,87.35
2023-03-28T04:46:55.324Z,87.39
2023-03-28T04:48:02.616Z,87.38
2023-03-28T04:49:05.617Z,87.34
2023-03-28T04:50:09.882Z,87.33
2023-03-28T04:51:13.926Z,87.37
2023-03-28T04:52:18.022Z,87.45
2023-03-28T04:53:22.149Z,87.42
2023-03-28T04:54:26.490Z,87.40
2023-03-28T04:55:30.627Z,87.38
2023-03-28T04:56:34.803Z,87.37
2023-03-28T04:57:39.025Z,87.41
2023-03-28T04:58:43.317Z,87.38
2023-03-28T04:59:47.400Z,87.40
2023-03-28T05:00:51.523Z,87.47
2023-03-28T05:01:55.634Z,87.49
2023-03-28T05:02:59.847Z,87.47
2023-03-28T05:04:03.913Z,87.41
2023-03-28T05:05:08.038Z,87.41
2023-03-28T05:06:12.124Z,87.45
2023-03-28T05:07:16.359Z,87.49
2023-03-28T05:08:26.846Z,87.47
2023-03-28T05:09:29.690Z,87.47
2023-03-28T05:10:33.859Z,87.57
2023-03-28T05:11:37.835Z,87.66
2023-03-28T05:12:42.017Z,87.64
2023-03-28T05:13:46.064Z,87.64
2023-03-28T05:14:50.352Z,87.69
2023-03-28T05:15:54.873Z,87.72
2023-03-28T05:16:58.732Z,87.76
2023-03-28T05:18:02.848Z,87.83
2023-03-28T05:19:07.164Z,87.90
2023-03-28T05:20:11.378Z,87.94
2023-03-28T05:21:15.433Z,87.94
2023-03-28T05:22:19.582Z,87.96
2023-03-28T05:23:23.718Z,88.03
2023-03-28T05:24:27.853Z,88.10
2023-03-28T05:25:32.143Z,88.18
2023-03-28T05:26:36.470Z,88.11
2023-03-28T05:27:40.400Z,88.10
2023-03-28T05:28:44.638Z,88.13
2023-03-28T05:29:48.746Z,88.14
2023-03-28T05:30:52.886Z,88.17
2023-03-28T05:31:57.171Z,88.18
2023-03-28T05:33:01.259Z,88.19
2023-03-28T05:34:05.274Z,88.17
2023-03-28T05:35:09.618Z,88.13
2023-03-28T05:36:13.846Z,88.03
2023-03-28T05:37:32.098Z,87.98
2023-03-28T05:38:35.139Z,87.92
2023-03-28T05:39:39.376Z,87.86
2023-03-28T05:40:43.455Z,87.65
2023-03-28T05:41:47.713Z,87.56
2023-03-28T05:42:51.797Z,87.53
2023-03-28T05:43:55.916Z,87.45
2023-03-28T05:45:00.196Z,87.28
2023-03-28T05:46:04.446Z,87.18
2023-03-28T05:47:08.601Z,87.02
2023-03-28T05:48:12.834Z,86.95
2023-03-28T05:49:17.032Z,86.91
2023-03-28T05:50:21.014Z,86.79
2023-03-28T05:51:25.452Z,86.67
2023-03-28T05:52:29.648Z,86.57
2023-03-28T05:53:33.812Z,86.50
2023-03-28T05:54:38.095Z,86.57
2023-03-28T05:55:42.125Z,86.49
2023-03-28T05:56:46.266Z,86.48
2023-03-28T05:57:50.557Z,86.44
2023-03-28T05:58:54.690Z,86.48
2023-03-28T05:59:58.746Z,86.49
2023-03-28T06:01:02.983Z,86.45
2023-03-28T06:02:07.218Z,86.49
2023-03-28T06:03:16.325Z,86.48
2023-03-28T06:04:15.670Z,86.43
2023-03-28T06:05:19.707Z,86.38
2023-03-28T06:06:23.848Z,86.28
2023-03-28T06:07:39.344Z,86.20
2023-03-28T06:08:32.206Z,86.28
2023-03-28T06:09:36.342Z,86.12
2023-03-28T06:10:40.446Z,86.00
2023-03-28T06:11:44.630Z,85.83
2023-03-28T06:12:48.886Z,85.72
2023-03-28T06:13:52.941Z,85.61
2023-03-28T06:14:57.133Z,85.56
2023-03-28T06:16:01.425Z,85.57
2023-03-28T06:17:05.593Z,85.61
2023-03-28T06:18:09.823Z,85.49
2023-03-28T06:19:18.397Z,85.30
2023-03-28T06:20:17.987Z,85.28
2023-03-28T06:21:22.232Z,85.37
2023-03-28T06:22:26.391Z,85.30
2023-03-28T06:23:30.403Z,85.36
2023-03-28T06:24:34.614Z,85.41
2023-03-28T06:25:38.704Z,85.38
2023-03-28T06:26:43.021Z,85.23
2023-03-28T06:27:48.045Z,84.94
2023-03-28T06:28:51.762Z,84.68
2023-03-28T06:29:56.025Z,84.43
2023-03-28T06:31:00.472Z,84.14
2023-03-28T06:32:04.356Z,83.81
2023-03-28T06:33:09.457Z,83.64
2023-03-28T06:34:13.246Z,83.53
2023-03-28T06:35:17.353Z,83.35
2023-03-28T06:36:21.589Z,82.92
2023-03-28T06:37:25.821Z,82.57
2023-03-28T06:38:30.027Z,82.34
2023-03-28T06:39:34.190Z,82.01
2023-03-28T06:40:38.418Z,81.90
2023-03-28T06:41:42.523Z,81.83
2023-03-28T06:42:46.705Z,81.72
2023-03-28T06:43:51.131Z,81.67
2023-03-28T06:44:55.246Z,81.51
2023-03-28T06:45:59.323Z,81.27
2023-03-28T06:47:03.497Z,81.03
2023-03-28T06:48:07.950Z,80.92
2023-03-28T06:49:11.938Z,80.81
2023-03-28T06:50:16.125Z,80.75
2023-03-28T06:51:20.331Z,80.91
2023-03-28T06:52:24.515Z,81.02
2023-03-28T06:53:28.668Z,81.12
2023-03-28T06:54:32.886Z,81.33
2023-03-28T06:55:37.045Z,81.57
2023-03-28T06:56:41.319Z,81.86
2023-03-28T06:57:45.315Z,82.11
2023-03-28T06:58:49.609Z,82.31
2023-03-28T06:59:53.831Z,82.50
2023-03-28T07:00:58.283Z,82.69
2023-03-28T07:02:02.379Z,82.86
2023-03-28T07:03:06.500Z,82.97
2023-03-28T07:04:10.632Z,83.03
2023-03-28T07:05:14.799Z,83.11
2023-03-28T07:06:18.978Z,83.21
2023-03-28T07:07:23.363Z,83.35
2023-03-28T07:08:27.558Z,83.50
2023-03-28T07:09:31.638Z,83.59
2023-03-28T07:10:35.882Z,83.63
2023-03-28T07:11:40.259Z,83.71
2023-03-28T07:12:44.362Z,83.80
2023-03-28T07:13:48.568Z,83.80
2023-03-28T07:14:52.802Z,83.81
2023-03-28T07:15:56.848Z,83.85
2023-03-28T07:17:01.146Z,83.89
2023-03-28T07:18:05.301Z,83.96
2023-03-28T07:19:09.420Z,84.05
2023-03-28T07:20:13.647Z,84.06
2023-03-28T07:21:17.898Z,84.08
2023-03-28T07:22:22.000Z,84.08
2023-03-28T07:23:26.258Z,84.20
2023-03-28T07:24:30.283Z,84.25
2023-03-28T07:25:34.611Z,84.33
2023-03-28T07:26:38.752Z,84.36
2023-03-28T07:27:42.918Z,84.41
2023-03-28T07:28:47.076Z,84.49
2023-03-28T07:29:51.210Z,84.49
2023-03-28T07:30:55.386Z,84.55
2023-03-28T07:31:59.616Z,84.48
2023-03-28T07:33:14.840Z,84.32
2023-03-28T07:34:07.981Z,84.21
2023-03-28T07:35:12.135Z,84.17
2023-03-28T07:36:16.353Z,84.10
2023-03-28T07:37:20.539Z,84.03
2023-03-28T07:38:24.782Z,83.98
2023-03-28T07:39:28.877Z,84.03
2023-03-28T07:40:33.017Z,84.14
2023-03-28T07:41:37.219Z,84.33
2023-03-28T07:42:55.395Z,84.48
2023-03-28T07:43:59.516Z,84.40
2023-03-28T07:45:03.320Z,84.32
2023-03-28T07:46:07.442Z,84.20
2023-03-28T07:47:25.767Z,84.03
2023-03-28T07:48:28.680Z,83.94
2023-03-28T07:49:32.802Z,83.75
2023-03-28T07:50:36.981Z,83.62
2023-03-28T07:51:41.198Z,83.58
2023-03-28T07:52:45.381Z,83.68
2023-03-28T07:53:49.536Z,83.94
2023-03-28T07:54:53.771Z,84.19
2023-03-28T07:55:57.953Z,84.61
2023-03-28T07:57:02.128Z,85.10
2023-03-28T07:58:06.282Z,85.57
2023-03-28T07:59:10.449Z,85.91
2023-03-28T08:00:14.686Z,86.31
2023-03-28T08:01:18.915Z,86.61
2023-03-28T08:02:23.054Z,86.83
2023-03-28T08:03:27.109Z,86.97
2023-03-28T08:04:31.290Z,87.18
2023-03-28T08:05:35.398Z,87.17
2023-03-28T08:06:39.494Z,87.34
2023-03-28T08:07:43.951Z,87.43
2023-03-28T08:08:48.022Z,87.51
2023-03-28T08:09:52.216Z,87.70
2023-03-28T08:10:56.415Z,87.81
2023-03-28T08:12:00.611Z,87.94
2023-03-28T08:13:04.794Z,88.05
2023-03-28T08:14:09.019Z,88.14
2023-03-28T08:15:13.200Z,88.28
2023-03-28T08:16:17.458Z,88.38
2023-03-28T08:17:21.677Z,88.40
2023-03-28T08:18:25.797Z,88.27
2023-03-28T08:19:29.981Z,88.20
2023-03-28T08:20:34.107Z,88.14
2023-03-28T08:21:38.338Z,88.05
2023-03-28T08:22:42.531Z,87.89
2023-03-28T08:23:46.718Z,87.64
2023-03-28T08:24:50.889Z,87.50
2023-03-28T08:25:55.084Z,87.47
2023-03-28T08:26:59.261Z,87.40
2023-03-28T08:28:03.445Z,87.36
2023-03-28T08:29:07.725Z,87.34
2023-03-28T08:30:11.903Z,87.23
2023-03-28T08:31:16.281Z,87.13
2023-03-28T08:32:20.280Z,86.99
2023-03-28T08:33:24.453Z,86.93
2023-03-28T08:34:28.701Z,86.82
2023-03-28T08:35:32.930Z,86.56
2023-03-28T08:36:37.008Z,86.55
2023-03-28T08:39:08.107Z,86.25
2023-03-28T08:40:12.269Z,85.95
2023-03-28T08:41:16.387Z,85.83
2023-03-28T08:42:20.706Z,85.80
2023-03-28T08:43:24.905Z,85.73
2023-03-28T08:44:29.063Z,85.61
2023-03-28T08:45:33.297Z,85.40
2023-03-28T08:46:43.491Z,85.38
2023-03-28T08:47:46.088Z,85.25
2023-03-28T08:48:50.259Z,84.97
2023-03-28T08:49:54.518Z,84.69
2023-03-28T08:50:58.989Z,84.53
2023-03-28T08:52:02.926Z,84.56
2023-03-28T08:53:07.136Z,84.53
2023-03-28T08:54:11.401Z,84.35
2023-03-28T08:55:15.540Z,84.13
2023-03-28T08:56:19.695Z,84.01
2023-03-28T08:57:23.891Z,83.97
2023-03-28T08:58:28.099Z,83.99
2023-03-28T08:59:32.351Z,83.87
2023-03-28T09:00:36.541Z,83.78
2023-03-28T09:01:41.004Z,83.51
2023-03-28T09:02:45.067Z,83.48
2023-03-28T09:03:49.217Z,83.47
2023-03-28T09:04:53.553Z,83.49
2023-03-28T09:05:57.583Z,83.59
2023-03-28T09:07:01.826Z,83.60
2023-03-28T09:08:06.180Z,83.56
2023-03-28T09:09:10.239Z,83.52
2023-03-28T09:10:14.432Z,83.46
2023-03-28T09:11:18.717Z,83.35
2023-03-28T09:12:22.962Z,83.07
2023-03-28T09:13:27.119Z,82.57
2023-03-28T09:14:31.293Z,82.11
2023-03-28T09:15:35.501Z,81.54
2023-03-28T09:16:39.719Z,80.92
2023-03-28T09:17:44.056Z,80.78
2023-03-28T09:18:48.187Z,80.67
2023-03-28T09:20:06.408Z,80.30
2023-03-28T09:21:09.459Z,79.80
2023-03-28T09:22:15.948Z,79.52
2023-03-28T09:23:17.871Z,79.21
2023-03-28T09:24:22.053Z,78.83
2023-03-28T09:25:26.274Z,78.15
2023-03-28T09:26:30.466Z,77.61
2023-03-28T09:27:34.645Z,77.49
2023-03-28T09:28:38.945Z,77.58
2023-03-28T09:29:43.138Z,77.64
2023-03-28T09:30:47.424Z,77.67
2023-03-28T09:31:51.650Z,77.66
2023-03-28T09:32:55.831Z,77.84
2023-03-28T09:34:00.003Z,77.96
2023-03-28T09:35:04.297Z,78.21
2023-03-28T09:36:08.598Z,78.41
2023-03-28T09:37:12.630Z,78.57
2023-03-28T09:38:16.987Z,78.67
2023-03-28T09:39:21.092Z,78.43
2023-03-28T09:40:25.315Z,78.14
2023-03-28T09:41:29.498Z,78.09
2023-03-28T09:42:33.785Z,78.03
2023-03-28T09:43:37.937Z,77.81
2023-03-28T09:44:53.614Z,77.50
2023-03-28T09:45:46.426Z,77.29
2023-03-28T09:46:50.562Z,77.10
2023-03-28T09:47:54.932Z,76.84
2023-03-28T09:48:59.093Z,76.89
2023-03-28T09:50:12.226Z,76.91
2023-03-28T09:51:07.690Z,76.85
2023-03-28T09:52:11.831Z,76.90
2023-03-28T09:53:16.005Z,76.82
2023-03-28T09:54:20.313Z,76.72
2023-03-28T09:55:24.482Z,76.73
2023-03-28T09:56:28.767Z,76.35
2023-03-28T09:57:32.846Z,76.21
2023-03-28T09:58:37.052Z,76.10
2023-03-28T09:59:41.272Z,76.04
2023-03-28T10:00:45.535Z,76.12
2023-03-28T10:01:49.760Z,76.35
2023-03-28T10:02:53.931Z,76.67
2023-03-28T10:03:58.242Z,76.30
2023-03-28T10:05:04.757Z,76.24
2023-03-28T10:06:06.592Z,76.35
2023-03-28T10:07:10.898Z,76.06
2023-03-28T10:08:15.139Z,76.13
2023-03-28T10:09:19.365Z,75.97
2023-03-28T10:10:23.673Z,76.04
2023-03-28T10:11:27.810Z,76.08
2023-03-28T10:12:32.089Z,76.27
2023-03-28T10:13:36.267Z,76.12
2023-03-28T10:14:40.485Z,75.62
2023-03-28T10:15:44.820Z,75.41
2023-03-28T10:16:49.013Z,75.33
2023-03-28T10:17:53.256Z,75.31
2023-03-28T10:18:57.362Z,75.09
2023-03-28T10:20:01.766Z,75.02
2023-03-28T10:21:05.853Z,74.06
2023-03-28T10:22:10.086Z,73.45
2023-03-28T10:23:14.406Z,73.07
2023-03-28T10:24:18.579Z,72.99
2023-03-28T10:25:22.782Z,73.27
2023-03-28T10:26:26.991Z,73.35
2023-03-28T10:27:31.155Z,73.45
2023-03-28T10:28:35.332Z,73.11
2023-03-28T10:29:39.622Z,72.76
2023-03-28T10:30:43.817Z,72.77
2023-03-28T10:31:48.026Z,72.96
2023-03-28T10:32:52.198Z,73.28
2023-03-28T10:33:56.368Z,73.68
2023-03-28T10:35:00.537Z,73.74
2023-03-28T10:36:04.809Z,73.77
2023-03-28T10:37:08.883Z,73.21
2023-03-28T10:38:13.169Z,72.97
2023-03-28T10:39:17.436Z,72.80
2023-03-28T10:40:21.590Z,72.33
2023-03-28T10:41:26.202Z,72.15
2023-03-28T10:42:30.023Z,71.89
2023-03-28T10:43:34.231Z,71.98
2023-03-28T10:44:38.404Z,71.86
2023-03-28T10:45:42.547Z,71.33
2023-03-28T10:46:46.822Z,70.90
2023-03-28T10:47:51.029Z,70.73
2023-03-28T10:48:55.260Z,71.00
2023-03-28T10:49:59.562Z,71.23
2023-03-28T10:51:03.614Z,70.63
2023-03-28T10:52:07.876Z,70.30
2023-03-28T10:53:12.109Z,70.44
2023-03-28T10:54:16.301Z,70.73
2023-03-28T10:55:20.513Z,71.13
2023-03-28T10:56:24.722Z,71.13
2023-03-28T10:57:28.929Z,71.29
2023-03-28T10:58:33.163Z,71.37
2023-03-28T10:59:37.335Z,70.87
2023-03-28T11:00:41.637Z,70.97
2023-03-28T11:01:45.843Z,71.09
2023-03-28T11:02:50.145Z,71.28
2023-03-28T11:03:54.443Z,71.59
2023-03-28T11:04:58.517Z,70.91
2023-03-28T11:06:09.567Z,70.11
2023-03-28T11:07:06.989Z,69.27
2023-03-28T11:08:11.308Z,69.18
2023-03-28T11:09:15.524Z,69.07
2023-03-28T11:10:19.761Z,69.05
2023-03-28T11:11:23.906Z,68.55
2023-03-28T11:12:29.148Z,68.12
2023-03-28T11:13:32.300Z,67.84
2023-03-28T11:14:36.585Z,67.73
2023-03-28T11:15:40.874Z,67.94
2023-03-28T11:16:45.045Z,68.23
2023-03-28T11:17:49.363Z,68.85
2023-03-28T11:18:53.414Z,69.66
2023-03-28T11:19:57.709Z,70.27
2023-03-28T11:21:02.289Z,70.54
2023-03-28T11:22:06.323Z,70.42
2023-03-28T11:23:10.561Z,70.07
2023-03-28T11:24:14.788Z,69.61
2023-03-28T11:25:19.092Z,69.25
2023-03-28T11:26:23.299Z,68.62
2023-03-28T11:27:27.516Z,68.44
2023-03-28T11:28:31.669Z,68.33
2023-03-28T11:29:43.261Z,68.46
2023-03-28T11:30:40.337Z,69.14
2023-03-28T11:31:44.580Z,69.68
2023-03-28T11:32:48.861Z,69.58
2023-03-28T11:33:53.146Z,69.56
2023-03-28T11:34:57.231Z,69.72
2023-03-28T11:36:01.622Z,69.73
2023-03-28T11:37:05.781Z,69.92
2023-03-28T11:38:10.074Z,69.47
2023-03-28T11:39:14.272Z,69.16
2023-03-28T11:40:18.493Z,68.74
2023-03-28T11:41:22.659Z,68.66
2023-03-28T11:42:26.881Z,68.34
2023-03-28T11:43:31.187Z,67.85
2023-03-28T11:44:35.359Z,67.67
2023-03-28T11:45:51.234Z,66.78
2023-03-28T11:46:43.895Z,66.73
2023-03-28T11:47:48.252Z,66.73
2023-03-28T11:48:52.345Z,66.01
2023-03-28T11:49:56.640Z,66.28
2023-03-28T11:51:00.957Z,66.87
2023-03-28T11:52:05.100Z,66.79
2023-03-28T11:53:09.330Z,67.11
2023-03-28T11:54:13.598Z,67.85
2023-03-28T11:55:17.811Z,68.25
2023-03-28T11:56:22.128Z,67.58
2023-03-28T11:57:26.485Z,67.10
2023-03-28T11:58:30.624Z,66.82
2023-03-28T11:59:34.866Z,67.08
2023-03-28T12:01:43.319Z,66.94
2023-03-28T12:02:47.722Z,66.82
2023-03-28T12:03:52.069Z,66.12
2023-03-28T12:04:56.011Z,65.48
2023-03-28T12:06:04.940Z,64.92
2023-03-28T12:07:04.550Z,64.46
2023-03-28T12:08:08.779Z,64.47
2023-03-28T12:09:12.935Z,64.49
2023-03-28T12:10:17.240Z,65.11
2023-03-28T12:11:21.411Z,65.75
2023-03-28T12:12:25.729Z,66.16
2023-03-28T12:13:29.885Z,66.37
2023-03-28T12:14:34.099Z,66.89
2023-03-28T12:15:38.404Z,66.62
2023-03-28T12:16:42.697Z,66.03
2023-03-28T12:19:14.077Z,65.44
2023-03-28T12:20:20.076Z,64.39
2023-03-28T12:21:22.460Z,64.12
2023-03-28T12:22:26.623Z,63.98
2023-03-28T12:23:30.912Z,63.64
2023-03-28T12:24:35.208Z,62.60
2023-03-28T12:25:39.240Z,62.45
2023-03-28T12:26:43.497Z,61.88
2023-03-28T12:27:47.716Z,61.69
2023-03-28T12:28:51.966Z,62.10
2023-03-28T12:29:56.168Z,61.62
2023-03-28T12:31:00.749Z,60.61
2023-03-28T12:32:04.793Z,59.89
2023-03-28T12:33:09.144Z,59.56
2023-03-28T12:34:13.269Z,59.34
2023-03-28T12:35:17.517Z,58.91
2023-03-28T12:36:21.786Z,58.10
2023-03-28T12:37:25.905Z,56.31
2023-03-28T12:38:30.238Z,56.59
2023-03-28T12:39:34.483Z,56.29
2023-03-28T12:40:38.795Z,56.10
2023-03-28T12:41:43.054Z,56.31
2023-03-28T12:42:47.294Z,56.22
2023-03-28T12:43:51.587Z,55.76
2023-03-28T12:44:55.774Z,55.80
2023-03-28T12:46:00.154Z,56.03
2023-03-28T12:47:04.400Z,56.23
2023-03-28T12:48:08.669Z,56.69
2023-03-28T12:49:12.993Z,57.77
2023-03-28T12:50:17.221Z,58.67
2023-03-28T12:51:21.545Z,57.67
2023-03-28T12:52:25.748Z,57.45
2023-03-28T12:53:29.958Z,57.26
2023-03-28T12:54:34.204Z,56.88
2023-03-28T12:55:38.403Z,57.10
2023-03-28T12:56:42.699Z,57.34
2023-03-28T12:57:47.123Z,58.46
2023-03-28T12:58:51.241Z,59.40
2023-03-28T12:59:55.539Z,58.23
2023-03-28T13:01:00.119Z,57.79
2023-03-28T13:02:04.066Z,57.34
2023-03-28T13:03:08.366Z,58.25
2023-03-28T13:04:12.636Z,58.70
2023-03-28T13:05:16.768Z,59.24
2023-03-28T13:06:21.052Z,58.92
2023-03-28T13:07:25.367Z,58.79
2023-03-28T13:08:43.660Z,57.51
2023-03-28T13:09:46.688Z,57.42
2023-03-28T13:10:50.936Z,57.99
2023-03-28T13:11:55.108Z,58.04
2023-03-28T13:12:59.418Z,58.40
2023-03-28T13:14:03.737Z,57.45
2023-03-28T13:15:07.924Z,56.87
2023-03-28T13:16:12.312Z,56.59
2023-03-28T13:17:16.433Z,57.93
2023-03-28T13:18:20.792Z,57.74
2023-03-28T13:19:25.075Z,58.48
2023-03-28T13:20:29.182Z,58.15
2023-03-28T13:21:33.619Z,57.35
2023-03-28T13:22:37.897Z,57.64
2023-03-28T13:23:42.216Z,58.03
2023-03-28T13:24:46.390Z,58.30
2023-03-28T13:25:50.679Z,58.97
2023-03-28T13:26:55.056Z,59.44
2023-03-28T13:27:59.323Z,58.44
2023-03-28T13:29:03.513Z,57.11
2023-03-28T13:30:07.988Z,55.97
2023-03-28T13:31:12.176Z,55.58
2023-03-28T13:32:16.341Z,56.93
2023-03-28T13:33:20.609Z,57.34
2023-03-28T13:34:24.912Z,57.81
2023-03-28T13:35:29.098Z,57.00
2023-03-28T13:36:33.376Z,56.60
2023-03-28T13:37:37.624Z,56.73
2023-03-28T13:38:41.992Z,55.99
2023-03-28T13:39:46.155Z,55.82
2023-03-28T13:40:50.412Z,54.85
2023-03-28T13:41:54.765Z,54.44
2023-03-28T13:42:58.977Z,54.56
2023-03-28T13:44:03.223Z,54.32
2023-03-28T13:45:07.424Z,54.60
2023-03-28T13:46:11.721Z,54.86
2023-03-28T13:47:16.071Z,54.74
2023-03-28T13:48:20.464Z,54.74
2023-03-28T13:49:24.553Z,54.84
2023-03-28T13:50:28.840Z,54.21
2023-03-28T13:51:33.089Z,53.81
2023-03-28T13:52:37.453Z,54.58